Terminal Aerodrome Forecast
Issued by NWS

Home | Current Version | Previous Version | Text Only | Print | Product List | Glossary On
Versions: 1 2 3 4 5 6 7 8 9 10 11 12 13 14 15 16 17 18 19 20 21 22 23 24 25 26 27 28 29 30 31 32 33 34 35 36 37 38 39 40 41 42 43 44 45 46 47 48 49 50
000
FTUS44 KHGX 311810 AAA
TAFIAH
TAF AMD
KIAH 311810Z 3118/0124 10010KT P6SM SCT030 BKN200
      TEMPO 3118/3120 BKN025
     FM312000 12014KT P6SM BKN020 OVC030
     FM010300 13011KT P6SM VCSH OVC012
     FM010600 12009KT 4SM -RA BR OVC009
     FM011000 15005KT P6SM BKN010
     FM011500 19007KT P6SM BKN015
     FM011800 22008KT P6SM VCSH BKN015=

USA.gov is the U.S. government's official web portal to all federal, state and local government web resources and services.